sensor_id;sensor_type;location;lat;lon;timestamp;pressure;altitude;pressure_sealevel;temperature;humidity
68107;BME280;54892;47.488;19.026;2023-02-08T00:00:57;102283.84;;;-3.74;70.21
68107;BME280;54892;47.488;19.026;2023-02-08T00:04:00;102293.34;;;-3.74;70.06
68107;BME280;54892;47.488;19.026;2023-02-08T00:07:04;102297.87;;;-3.78;70.34
68107;BME280;54892;47.488;19.026;2023-02-08T00:10:07;102300.13;;;-3.73;70.07
68107;BME280;54892;47.488;19.026;2023-02-08T00:13:11;102303.84;;;-3.64;69.55
68107;BME280;54892;47.488;19.026;2023-02-08T00:16:16;102301.19;;;-3.63;69.30
68107;BME280;54892;47.488;19.026;2023-02-08T00:19:19;102306.44;;;-3.52;68.72
68107;BME280;54892;47.488;19.026;2023-02-08T00:22:22;102305.72;;;-3.54;68.45
68107;BME280;54892;47.488;19.026;2023-02-08T00:25:25;102309.94;;;-3.53;68.50
68107;BME280;54892;47.488;19.026;2023-02-08T00:28:28;102303.03;;;-3.52;68.59
68107;BME280;54892;47.488;19.026;2023-02-08T00:31:33;102311.06;;;-3.44;68.29
68107;BME280;54892;47.488;19.026;2023-02-08T00:34:36;102312.94;;;-3.33;68.03
68107;BME280;54892;47.488;19.026;2023-02-08T00:37:39;102313.00;;;-3.22;66.96
68107;BME280;54892;47.488;19.026;2023-02-08T00:40:42;102304.84;;;-3.15;66.44
68107;BME280;54892;47.488;19.026;2023-02-08T00:43:45;102305.44;;;-3.12;65.90
68107;BME280;54892;47.488;19.026;2023-02-08T00:46:50;102314.63;;;-3.08;65.08
68107;BME280;54892;47.488;19.026;2023-02-08T00:49:55;102317.28;;;-2.96;64.66
68107;BME280;54892;47.488;19.026;2023-02-08T00:52:58;102309.50;;;-2.83;64.03
68107;BME280;54892;47.488;19.026;2023-02-08T00:56:01;102316.91;;;-2.79;62.81
68107;BME280;54892;47.488;19.026;2023-02-08T00:59:04;102319.34;;;-2.64;62.56
68107;BME280;54892;47.488;19.026;2023-02-08T01:02:09;102314.34;;;-2.54;61.92
68107;BME280;54892;47.488;19.026;2023-02-08T01:05:12;102321.22;;;-2.42;61.67
68107;BME280;54892;47.488;19.026;2023-02-08T01:08:15;102312.38;;;-2.39;61.57
68107;BME280;54892;47.488;19.026;2023-02-08T01:11:21;102310.91;;;-2.31;61.27
68107;BME280;54892;47.488;19.026;2023-02-08T01:14:25;102305.72;;;-2.31;61.41
68107;BME280;54892;47.488;19.026;2023-02-08T01:17:30;102311.53;;;-2.27;61.66
68107;BME280;54892;47.488;19.026;2023-02-08T01:20:33;102309.06;;;-2.17;61.47
68107;BME280;54892;47.488;19.026;2023-02-08T01:23:37;102309.53;;;-2.12;61.66
68107;BME280;54892;47.488;19.026;2023-02-08T01:26:40;102307.22;;;-2.04;61.74
68107;BME280;54892;47.488;19.026;2023-02-08T01:29:44;102298.41;;;-2.01;61.84
68107;BME280;54892;47.488;19.026;2023-02-08T01:32:49;102300.78;;;-1.98;62.05
68107;BME280;54892;47.488;19.026;2023-02-08T01:35:52;102305.38;;;-1.90;61.67
68107;BME280;54892;47.488;19.026;2023-02-08T01:38:56;102305.81;;;-1.85;61.72
68107;BME280;54892;47.488;19.026;2023-02-08T01:42:00;102309.62;;;-1.78;61.77
68107;BME280;54892;47.488;19.026;2023-02-08T01:45:19;102314.09;;;-1.80;61.68
68107;BME280;54892;47.488;19.026;2023-02-08T01:48:26;102317.87;;;-1.73;61.98
68107;BME280;54892;47.488;19.026;2023-02-08T01:51:31;102318.69;;;-1.72;61.84
68107;BME280;54892;47.488;19.026;2023-02-08T01:54:36;102313.84;;;-1.77;62.17
68107;BME280;54892;47.488;19.026;2023-02-08T01:57:41;102324.94;;;-1.63;62.14
68107;BME280;54892;47.488;19.026;2023-02-08T02:00:45;102317.16;;;-1.63;62.29
68107;BME280;54892;47.488;19.026;2023-02-08T02:03:50;102319.28;;;-1.57;62.38
68107;BME280;54892;47.488;19.026;2023-02-08T02:06:53;102316.94;;;-1.60;62.36
68107;BME280;54892;47.488;19.026;2023-02-08T02:09:58;102316.00;;;-1.48;61.94
68107;BME280;54892;47.488;19.026;2023-02-08T02:13:05;102322.25;;;-1.50;62.22
68107;BME280;54892;47.488;19.026;2023-02-08T02:16:09;102314.22;;;-1.59;62.13
68107;BME280;54892;47.488;19.026;2023-02-08T02:19:15;102320.47;;;-1.61;61.98
68107;BME280;54892;47.488;19.026;2023-02-08T02:22:30;102313.16;;;-1.67;62.12
68107;BME280;54892;47.488;19.026;2023-02-08T02:25:47;102312.34;;;-1.68;61.94
68107;BME280;54892;47.488;19.026;2023-02-08T02:29:06;102314.44;;;-1.62;61.88
68107;BME280;54892;47.488;19.026;2023-02-08T02:32:26;102305.03;;;-1.63;62.07
68107;BME280;54892;47.488;19.026;2023-02-08T02:35:35;102309.41;;;-1.63;62.08
68107;BME280;54892;47.488;19.026;2023-02-08T02:38:44;102297.97;;;-1.61;62.34
68107;BME280;54892;47.488;19.026;2023-02-08T02:41:52;102303.03;;;-1.59;61.96
68107;BME280;54892;47.488;19.026;2023-02-08T02:45:16;102300.91;;;-1.54;61.92
68107;BME280;54892;47.488;19.026;2023-02-08T02:48:26;102311.87;;;-1.50;61.60
68107;BME280;54892;47.488;19.026;2023-02-08T02:51:34;102321.16;;;-1.48;61.80
68107;BME280;54892;47.488;19.026;2023-02-08T02:54:39;102327.06;;;-1.57;62.15
68107;BME280;54892;47.488;19.026;2023-02-08T02:57:44;102323.75;;;-1.59;61.97
68107;BME280;54892;47.488;19.026;2023-02-08T03:00:52;102323.19;;;-1.51;62.34
68107;BME280;54892;47.488;19.026;2023-02-08T03:03:57;102330.00;;;-1.50;62.20
68107;BME280;54892;47.488;19.026;2023-02-08T03:07:02;102334.34;;;-1.51;62.05
68107;BME280;54892;47.488;19.026;2023-02-08T03:10:12;102342.84;;;-1.49;62.34
68107;BME280;54892;47.488;19.026;2023-02-08T03:13:23;102341.78;;;-1.35;62.13
68107;BME280;54892;47.488;19.026;2023-02-08T03:16:30;102352.47;;;-1.40;61.95
68107;BME280;54892;47.488;19.026;2023-02-08T03:19:35;102354.25;;;-1.29;61.80
68107;BME280;54892;47.488;19.026;2023-02-08T03:22:42;102351.56;;;-1.27;61.77
68107;BME280;54892;47.488;19.026;2023-02-08T03:25:48;102364.03;;;-1.32;61.16
68107;BME280;54892;47.488;19.026;2023-02-08T03:28:53;102362.97;;;-1.30;61.62
68107;BME280;54892;47.488;19.026;2023-02-08T03:31:58;102360.03;;;-1.25;61.54
68107;BME280;54892;47.488;19.026;2023-02-08T03:35:03;102359.34;;;-1.27;61.56
68107;BME280;54892;47.488;19.026;2023-02-08T03:38:08;102366.50;;;-1.31;61.50
68107;BME280;54892;47.488;19.026;2023-02-08T03:41:14;102364.25;;;-1.24;61.62
68107;BME280;54892;47.488;19.026;2023-02-08T03:44:20;102362.16;;;-1.30;61.43
68107;BME280;54892;47.488;19.026;2023-02-08T03:47:26;102365.47;;;-1.28;61.77
68107;BME280;54892;47.488;19.026;2023-02-08T03:50:32;102370.41;;;-1.25;61.94
68107;BME280;54892;47.488;19.026;2023-02-08T03:53:36;102377.22;;;-1.24;61.75
68107;BME280;54892;47.488;19.026;2023-02-08T03:56:42;102372.28;;;-1.16;61.90
68107;BME280;54892;47.488;19.026;2023-02-08T03:59:51;102368.50;;;-1.23;61.93
68107;BME280;54892;47.488;19.026;2023-02-08T04:02:55;102365.09;;;-1.24;62.07
68107;BME280;54892;47.488;19.026;2023-02-08T04:06:02;102363.09;;;-1.20;61.75
68107;BME280;54892;47.488;19.026;2023-02-08T04:09:05;102362.84;;;-1.17;61.54
68107;BME280;54892;47.488;19.026;2023-02-08T04:12:09;102369.91;;;-1.08;61.37
68107;BME280;54892;47.488;19.026;2023-02-08T04:15:12;102366.03;;;-1.13;61.47
68107;BME280;54892;47.488;19.026;2023-02-08T04:18:15;102366.88;;;-1.13;61.29
68107;BME280;54892;47.488;19.026;2023-02-08T04:21:19;102368.75;;;-1.15;61.21
68107;BME280;54892;47.488;19.026;2023-02-08T04:24:22;102386.66;;;-1.12;61.56
68107;BME280;54892;47.488;19.026;2023-02-08T04:27:26;102384.06;;;-1.12;61.45
68107;BME280;54892;47.488;19.026;2023-02-08T04:30:29;102377.94;;;-1.11;61.44
68107;BME280;54892;47.488;19.026;2023-02-08T04:33:32;102366.88;;;-1.13;61.19
68107;BME280;54892;47.488;19.026;2023-02-08T04:36:37;102367.69;;;-1.12;60.85
68107;BME280;54892;47.488;19.026;2023-02-08T04:39:40;102358.87;;;-1.10;60.77
68107;BME280;54892;47.488;19.026;2023-02-08T04:42:44;102363.44;;;-1.13;60.94
68107;BME280;54892;47.488;19.026;2023-02-08T04:45:48;102361.81;;;-1.03;60.85
68107;BME280;54892;47.488;19.026;2023-02-08T04:48:51;102363.22;;;-1.10;60.56
68107;BME280;54892;47.488;19.026;2023-02-08T04:51:57;102371.69;;;-1.08;60.72
68107;BME280;54892;47.488;19.026;2023-02-08T04:55:00;102370.62;;;-1.05;60.79
68107;BME280;54892;47.488;19.026;2023-02-08T04:58:03;102365.91;;;-1.00;60.56
68107;BME280;54892;47.488;19.026;2023-02-08T05:01:06;102368.28;;;-0.97;60.55
68107;BME280;54892;47.488;19.026;2023-02-08T05:04:11;102364.97;;;-0.99;60.45
68107;BME280;54892;47.488;19.026;2023-02-08T05:07:15;102372.16;;;-1.03;60.61
68107;BME280;54892;47.488;19.026;2023-02-08T05:10:19;102378.63;;;-1.09;60.62
68107;BME280;54892;47.488;19.026;2023-02-08T05:13:22;102378.87;;;-1.00;60.67
68107;BME280;54892;47.488;19.026;2023-02-08T05:16:25;102370.16;;;-0.99;60.68
68107;BME280;54892;47.488;19.026;2023-02-08T05:19:29;102383.59;;;-1.17;60.41
68107;BME280;54892;47.488;19.026;2023-02-08T05:22:33;102387.25;;;-1.08;60.73
68107;BME280;54892;47.488;19.026;2023-02-08T05:25:36;102390.78;;;-1.09;60.77
68107;BME280;54892;47.488;19.026;2023-02-08T05:28:40;102397.84;;;-1.11;61.03
68107;BME280;54892;47.488;19.026;2023-02-08T05:31:44;102403.37;;;-1.16;61.29
68107;BME280;54892;47.488;19.026;2023-02-08T05:34:47;102399.59;;;-1.23;61.21
68107;BME280;54892;47.488;19.026;2023-02-08T05:37:51;102388.78;;;-1.17;61.22
68107;BME280;54892;47.488;19.026;2023-02-08T05:40:55;102397.50;;;-1.18;60.98
68107;BME280;54892;47.488;19.026;2023-02-08T05:43:58;102391.50;;;-1.18;61.18
68107;BME280;54892;47.488;19.026;2023-02-08T05:47:01;102396.06;;;-1.22;61.05
68107;BME280;54892;47.488;19.026;2023-02-08T05:50:04;102401.72;;;-1.17;61.21
68107;BME280;54892;47.488;19.026;2023-02-08T05:53:10;102402.91;;;-1.21;61.20
68107;BME280;54892;47.488;19.026;2023-02-08T05:56:13;102399.50;;;-1.33;61.10
68107;BME280;54892;47.488;19.026;2023-02-08T05:59:17;102391.59;;;-1.31;61.57
68107;BME280;54892;47.488;19.026;2023-02-08T06:02:20;102395.25;;;-1.34;61.50
68107;BME280;54892;47.488;19.026;2023-02-08T06:05:24;102405.97;;;-1.27;61.73
68107;BME280;54892;47.488;19.026;2023-02-08T06:08:28;102415.03;;;-1.33;61.88
68107;BME280;54892;47.488;19.026;2023-02-08T06:11:32;102420.59;;;-1.26;61.79
68107;BME280;54892;47.488;19.026;2023-02-08T06:14:36;102423.75;;;-1.34;61.65
68107;BME280;54892;47.488;19.026;2023-02-08T06:17:39;102427.28;;;-1.35;61.63
68107;BME280;54892;47.488;19.026;2023-02-08T06:20:42;102428.69;;;-1.31;61.98
68107;BME280;54892;47.488;19.026;2023-02-08T06:23:47;102436.13;;;-1.26;61.79
68107;BME280;54892;47.488;19.026;2023-02-08T06:26:50;102432.09;;;-1.30;61.57
68107;BME280;54892;47.488;19.026;2023-02-08T06:29:53;102436.59;;;-1.21;61.66
68107;BME280;54892;47.488;19.026;2023-02-08T06:32:57;102441.31;;;-1.26;61.54
68107;BME280;54892;47.488;19.026;2023-02-08T06:36:00;102440.59;;;-1.17;61.56
68107;BME280;54892;47.488;19.026;2023-02-08T06:39:04;102441.41;;;-1.16;61.49
68107;BME280;54892;47.488;19.026;2023-02-08T06:42:07;102445.56;;;-1.14;61.49
68107;BME280;54892;47.488;19.026;2023-02-08T06:45:11;102444.00;;;-1.16;61.36
68107;BME280;54892;47.488;19.026;2023-02-08T06:48:14;102439.44;;;-1.13;61.53
68107;BME280;54892;47.488;19.026;2023-02-08T06:51:17;102441.31;;;-1.15;61.16
68107;BME280;54892;47.488;19.026;2023-02-08T06:54:22;102448.34;;;3.54;76.56
68107;BME280;54892;47.488;19.026;2023-02-08T06:57:25;102447.09;;;6.02;71.98
68107;BME280;54892;47.488;19.026;2023-02-08T07:00:29;102453.59;;;5.89;47.05
68107;BME280;54892;47.488;19.026;2023-02-08T07:03:32;102452.59;;;2.99;49.59
68107;BME280;54892;47.488;19.026;2023-02-08T07:06:36;102461.50;;;4.16;72.33
68107;BME280;54892;47.488;19.026;2023-02-08T07:09:40;102459.69;;;5.98;47.57
68107;BME280;54892;47.488;19.026;2023-02-08T07:12:44;102460.37;;;3.37;48.35
68107;BME280;54892;47.488;19.026;2023-02-08T07:15:47;102455.53;;;2.38;50.75
68107;BME280;54892;47.488;19.026;2023-02-08T07:18:50;102461.31;;;1.93;52.54
68107;BME280;54892;47.488;19.026;2023-02-08T07:21:53;102467.34;;;2.03;51.60
68107;BME280;54892;47.488;19.026;2023-02-08T07:24:58;102469.50;;;1.69;52.89
68107;BME280;54892;47.488;19.026;2023-02-08T07:28:01;102477.28;;;1.59;52.94
68107;BME280;54892;47.488;19.026;2023-02-08T07:31:04;102475.00;;;2.15;51.82
68107;BME280;54892;47.488;19.026;2023-02-08T07:34:08;102478.03;;;2.30;50.96
68107;BME280;54892;47.488;19.026;2023-02-08T07:37:11;102485.44;;;2.24;50.70
68107;BME280;54892;47.488;19.026;2023-02-08T07:40:16;102492.81;;;2.39;50.75
68107;BME280;54892;47.488;19.026;2023-02-08T07:43:19;102495.56;;;2.47;50.66
68107;BME280;54892;47.488;19.026;2023-02-08T07:46:23;102500.53;;;2.31;51.73
68107;BME280;54892;47.488;19.026;2023-02-08T07:49:26;102485.41;;;2.15;51.34
68107;BME280;54892;47.488;19.026;2023-02-08T07:52:29;102492.91;;;2.67;50.43
68107;BME280;54892;47.488;19.026;2023-02-08T07:55:34;102498.56;;;1.93;52.03
68107;BME280;54892;47.488;19.026;2023-02-08T07:58:37;102493.12;;;2.16;51.81
68107;BME280;54892;47.488;19.026;2023-02-08T08:01:40;102492.97;;;2.47;51.50
68107;BME280;54892;47.488;19.026;2023-02-08T08:04:43;102494.44;;;2.79;50.78
68107;BME280;54892;47.488;19.026;2023-02-08T08:07:47;102500.44;;;2.80;50.32
68107;BME280;54892;47.488;19.026;2023-02-08T08:10:51;102511.09;;;3.06;49.78
68107;BME280;54892;47.488;19.026;2023-02-08T08:13:55;102516.25;;;3.26;49.29
68107;BME280;54892;47.488;19.026;2023-02-08T08:16:58;102512.28;;;3.22;49.36
68107;BME280;54892;47.488;19.026;2023-02-08T08:20:01;102516.62;;;4.05;48.00
68107;BME280;54892;47.488;19.026;2023-02-08T08:23:05;102515.66;;;4.06;47.49
68107;BME280;54892;47.488;19.026;2023-02-08T08:26:10;102519.69;;;4.81;45.63
68107;BME280;54892;47.488;19.026;2023-02-08T08:29:16;102517.31;;;5.90;43.63
68107;BME280;54892;47.488;19.026;2023-02-08T08:32:19;102527.00;;;5.89;44.32
68107;BME280;54892;47.488;19.026;2023-02-08T08:35:23;102519.53;;;5.60;43.36
68107;BME280;54892;47.488;19.026;2023-02-08T08:38:26;102531.66;;;5.53;43.34
68107;BME280;54892;47.488;19.026;2023-02-08T08:41:31;102523.88;;;5.00;44.68
68107;BME280;54892;47.488;19.026;2023-02-08T08:44:34;102526.44;;;3.75;47.76
68107;BME280;54892;47.488;19.026;2023-02-08T08:47:38;102528.44;;;2.87;49.92
68107;BME280;54892;47.488;19.026;2023-02-08T08:50:41;102530.97;;;2.50;51.62
68107;BME280;54892;47.488;19.026;2023-02-08T08:53:45;102535.28;;;1.71;53.99
68107;BME280;54892;47.488;19.026;2023-02-08T08:56:49;102537.75;;;1.82;54.47
68107;BME280;54892;47.488;19.026;2023-02-08T08:59:52;102528.88;;;1.94;54.17
68107;BME280;54892;47.488;19.026;2023-02-08T09:02:56;102532.56;;;1.82;55.01
68107;BME280;54892;47.488;19.026;2023-02-08T09:05:59;102533.66;;;1.99;54.46
68107;BME280;54892;47.488;19.026;2023-02-08T09:09:02;102538.50;;;1.53;56.15
68107;BME280;54892;47.488;19.026;2023-02-08T09:12:07;102541.06;;;1.84;55.59
68107;BME280;54892;47.488;19.026;2023-02-08T09:15:10;102550.56;;;2.15;54.95
68107;BME280;54892;47.488;19.026;2023-02-08T09:18:14;102554.91;;;1.94;55.44
68107;BME280;54892;47.488;19.026;2023-02-08T09:21:18;102560.97;;;2.05;55.50
68107;BME280;54892;47.488;19.026;2023-02-08T09:24:22;102570.91;;;1.80;56.47
68107;BME280;54892;47.488;19.026;2023-02-08T09:27:26;102564.75;;;1.81;56.59
68107;BME280;54892;47.488;19.026;2023-02-08T09:30:30;102576.16;;;1.90;56.24
68107;BME280;54892;47.488;19.026;2023-02-08T09:33:34;102561.13;;;1.62;57.54
68107;BME280;54892;47.488;19.026;2023-02-08T09:36:38;102566.78;;;1.67;57.65
68107;BME280;54892;47.488;19.026;2023-02-08T09:39:41;102566.00;;;1.87;56.63
68107;BME280;54892;47.488;19.026;2023-02-08T09:42:46;102572.63;;;2.01;56.70
68107;BME280;54892;47.488;19.026;2023-02-08T09:45:54;102569.63;;;2.15;55.94
68107;BME280;54892;47.488;19.026;2023-02-08T09:49:01;102568.38;;;2.00;56.18
68107;BME280;54892;47.488;19.026;2023-02-08T09:52:08;102574.28;;;2.21;55.88
68107;BME280;54892;47.488;19.026;2023-02-08T09:55:16;102560.56;;;2.19;55.53
68107;BME280;54892;47.488;19.026;2023-02-08T09:58:25;102570.19;;;2.19;55.22
68107;BME280;54892;47.488;19.026;2023-02-08T10:01:29;102563.31;;;2.18;55.71
68107;BME280;54892;47.488;19.026;2023-02-08T10:04:37;102562.37;;;2.19;55.60
68107;BME280;54892;47.488;19.026;2023-02-08T10:07:43;102563.31;;;2.08;56.13
68107;BME280;54892;47.488;19.026;2023-02-08T10:10:48;102561.41;;;2.30;54.43
68107;BME280;54892;47.488;19.026;2023-02-08T10:13:59;102563.62;;;2.34;54.60
68107;BME280;54892;47.488;19.026;2023-02-08T10:17:08;102562.94;;;2.42;54.43
68107;BME280;54892;47.488;19.026;2023-02-08T10:20:18;102574.03;;;2.44;55.25
68107;BME280;54892;47.488;19.026;2023-02-08T10:23:30;102547.56;;;2.58;53.43
68107;BME280;54892;47.488;19.026;2023-02-08T10:26:40;102556.34;;;2.57;53.36
68107;BME280;54892;47.488;19.026;2023-02-08T10:29:51;102565.66;;;2.70;52.89
68107;BME280;54892;47.488;19.026;2023-02-08T10:33:00;102576.34;;;2.77;52.59
68107;BME280;54892;47.488;19.026;2023-02-08T10:36:06;102564.28;;;2.66;53.32
68107;BME280;54892;47.488;19.026;2023-02-08T10:39:23;102553.31;;;2.72;53.05
68107;BME280;54892;47.488;19.026;2023-02-08T10:42:28;102557.03;;;2.79;53.15
68107;BME280;54892;47.488;19.026;2023-02-08T10:45:35;102558.94;;;2.77;52.70
68107;BME280;54892;47.488;19.026;2023-02-08T10:48:48;102565.53;;;2.62;52.74
68107;BME280;54892;47.488;19.026;2023-02-08T10:51:55;102559.50;;;2.51;53.97
68107;BME280;54892;47.488;19.026;2023-02-08T10:54:58;102561.72;;;2.56;54.09
68107;BME280;54892;47.488;19.026;2023-02-08T10:58:03;102552.63;;;2.50;54.10
68107;BME280;54892;47.488;19.026;2023-02-08T11:01:08;102561.81;;;2.74;53.64
68107;BME280;54892;47.488;19.026;2023-02-08T11:04:12;102553.31;;;2.72;53.72
68107;BME280;54892;47.488;19.026;2023-02-08T11:07:17;102546.97;;;2.74;53.26
68107;BME280;54892;47.488;19.026;2023-02-08T11:10:21;102549.22;;;2.59;53.86
68107;BME280;54892;47.488;19.026;2023-02-08T11:13:25;102558.41;;;2.64;54.20
68107;BME280;54892;47.488;19.026;2023-02-08T11:16:30;102547.94;;;2.73;54.29
68107;BME280;54892;47.488;19.026;2023-02-08T11:19:34;102550.53;;;2.93;54.22
68107;BME280;54892;47.488;19.026;2023-02-08T11:22:43;102557.53;;;3.02;54.35
68107;BME280;54892;47.488;19.026;2023-02-08T11:25:47;102552.31;;;3.02;54.03
68107;BME280;54892;47.488;19.026;2023-02-08T11:29:00;102560.16;;;3.40;52.22
68107;BME280;54892;47.488;19.026;2023-02-08T11:32:15;102555.50;;;3.34;52.67
68107;BME280;54892;47.488;19.026;2023-02-08T11:35:19;102553.66;;;3.44;51.70
68107;BME280;54892;47.488;19.026;2023-02-08T11:38:22;102546.34;;;3.58;51.48
68107;BME280;54892;47.488;19.026;2023-02-08T11:41:29;102546.41;;;3.38;51.51
68107;BME280;54892;47.488;19.026;2023-02-08T11:44:32;102557.12;;;3.35;50.18
68107;BME280;54892;47.488;19.026;2023-02-08T11:47:37;102541.44;;;3.07;50.74
68107;BME280;54892;47.488;19.026;2023-02-08T11:50:40;102543.59;;;3.22;51.01
68107;BME280;54892;47.488;19.026;2023-02-08T11:53:45;102535.06;;;3.19;50.26
68107;BME280;54892;47.488;19.026;2023-02-08T11:56:51;102537.75;;;3.38;50.42
68107;BME280;54892;47.488;19.026;2023-02-08T12:00:12;102532.03;;;3.52;50.31
68107;BME280;54892;47.488;19.026;2023-02-08T12:03:23;102533.16;;;3.49;50.77
68107;BME280;54892;47.488;19.026;2023-02-08T12:06:31;102532.00;;;3.62;49.46
68107;BME280;54892;47.488;19.026;2023-02-08T12:13:10;102535.97;;;3.38;50.02
68107;BME280;54892;47.488;19.026;2023-02-08T12:16:19;102525.63;;;3.46;50.00
68107;BME280;54892;47.488;19.026;2023-02-08T12:19:30;102526.25;;;3.58;47.75
68107;BME280;54892;47.488;19.026;2023-02-08T12:22:38;102521.19;;;3.57;47.94
68107;BME280;54892;47.488;19.026;2023-02-08T12:25:43;102524.94;;;3.72;47.30
68107;BME280;54892;47.488;19.026;2023-02-08T12:29:00;102524.38;;;3.50;47.73
68107;BME280;54892;47.488;19.026;2023-02-08T12:32:15;102531.25;;;3.52;47.31
68107;BME280;54892;47.488;19.026;2023-02-08T12:35:27;102526.88;;;3.70;47.43
68107;BME280;54892;47.488;19.026;2023-02-08T12:38:52;102514.72;;;3.79;48.03
68107;BME280;54892;47.488;19.026;2023-02-08T12:42:26;102528.41;;;3.63;49.12
68107;BME280;54892;47.488;19.026;2023-02-08T12:45:40;102514.31;;;3.56;49.94
68107;BME280;54892;47.488;19.026;2023-02-08T12:48:56;102514.28;;;3.65;48.50
68107;BME280;54892;47.488;19.026;2023-02-08T12:52:11;102524.13;;;3.44;48.43
68107;BME280;54892;47.488;19.026;2023-02-08T12:55:19;102511.13;;;3.34;47.38
68107;BME280;54892;47.488;19.026;2023-02-08T12:58:26;102515.00;;;3.20;47.34
68107;BME280;54892;47.488;19.026;2023-02-08T13:01:30;102518.19;;;3.24;47.63
68107;BME280;54892;47.488;19.026;2023-02-08T13:04:35;102524.53;;;3.11;47.96
68107;BME280;54892;47.488;19.026;2023-02-08T13:07:41;102512.59;;;2.99;48.94
68107;BME280;54892;47.488;19.026;2023-02-08T13:10:45;102506.75;;;2.87;49.40
68107;BME280;54892;47.488;19.026;2023-02-08T13:13:54;102512.91;;;2.96;49.57
68107;BME280;54892;47.488;19.026;2023-02-08T13:17:02;102512.59;;;2.99;47.89
68107;BME280;54892;47.488;19.026;2023-02-08T13:20:12;102518.78;;;2.98;48.33
68107;BME280;54892;47.488;19.026;2023-02-08T13:23:22;102518.97;;;2.86;49.03
68107;BME280;54892;47.488;19.026;2023-02-08T13:26:27;102525.72;;;2.79;49.09
68107;BME280;54892;47.488;19.026;2023-02-08T13:29:32;102523.22;;;2.78;48.39
68107;BME280;54892;47.488;19.026;2023-02-08T13:32:36;102519.66;;;2.79;47.50
68107;BME280;54892;47.488;19.026;2023-02-08T13:35:47;102516.78;;;2.82;47.62
68107;BME280;54892;47.488;19.026;2023-02-08T13:38:52;102522.28;;;2.69;48.57
68107;BME280;54892;47.488;19.026;2023-02-08T13:41:55;102518.72;;;2.60;49.05
68107;BME280;54892;47.488;19.026;2023-02-08T13:44:59;102516.12;;;2.60;49.69
68107;BME280;54892;47.488;19.026;2023-02-08T13:48:04;102515.31;;;2.69;49.38
68107;BME280;54892;47.488;19.026;2023-02-08T13:51:12;102507.34;;;2.51;49.70
68107;BME280;54892;47.488;19.026;2023-02-08T13:54:36;102516.97;;;2.61;49.70
68107;BME280;54892;47.488;19.026;2023-02-08T13:57:49;102514.47;;;2.69;48.52
68107;BME280;54892;47.488;19.026;2023-02-08T14:01:00;102510.78;;;2.52;48.37
68107;BME280;54892;47.488;19.026;2023-02-08T14:04:14;102508.72;;;2.46;48.30
68107;BME280;54892;47.488;19.026;2023-02-08T14:07:23;102507.34;;;2.51;48.24
68107;BME280;54892;47.488;19.026;2023-02-08T14:10:32;102510.25;;;2.48;48.38
68107;BME280;54892;47.488;19.026;2023-02-08T14:13:38;102512.19;;;2.46;48.91
68107;BME280;54892;47.488;19.026;2023-02-08T14:16:46;102505.16;;;2.56;49.00
68107;BME280;54892;47.488;19.026;2023-02-08T14:20:15;102507.63;;;2.58;49.01
68107;BME280;54892;47.488;19.026;2023-02-08T14:23:20;102501.56;;;2.77;47.94
68107;BME280;54892;47.488;19.026;2023-02-08T14:26:23;102507.69;;;2.96;46.90
68107;BME280;54892;47.488;19.026;2023-02-08T14:29:27;102505.47;;;3.01;47.17
68107;BME280;54892;47.488;19.026;2023-02-08T14:32:31;102501.22;;;3.00;47.12
68107;BME280;54892;47.488;19.026;2023-02-08T14:35:37;102505.66;;;2.89;46.26
68107;BME280;54892;47.488;19.026;2023-02-08T14:38:52;102510.03;;;2.89;46.16
68107;BME280;54892;47.488;19.026;2023-02-08T14:41:56;102503.34;;;2.77;46.59
68107;BME280;54892;47.488;19.026;2023-02-08T14:45:03;102506.91;;;2.76;46.53
68107;BME280;54892;47.488;19.026;2023-02-08T14:48:17;102512.81;;;2.68;47.13
68107;BME280;54892;47.488;19.026;2023-02-08T14:51:23;102501.19;;;2.52;47.26
68107;BME280;54892;47.488;19.026;2023-02-08T14:54:31;102514.22;;;2.42;46.82
68107;BME280;54892;47.488;19.026;2023-02-08T14:57:36;102502.97;;;2.42;46.97
68107;BME280;54892;47.488;19.026;2023-02-08T15:00:42;102503.25;;;2.39;46.98
68107;BME280;54892;47.488;19.026;2023-02-08T15:03:47;102506.53;;;2.21;47.54
68107;BME280;54892;47.488;19.026;2023-02-08T15:10:11;102509.16;;;2.21;47.57
68107;BME280;54892;47.488;19.026;2023-02-08T15:13:16;102511.75;;;2.21;47.68
68107;BME280;54892;47.488;19.026;2023-02-08T15:16:21;102511.34;;;2.16;47.76
68107;BME280;54892;47.488;19.026;2023-02-08T15:19:27;102509.81;;;2.04;48.42
68107;BME280;54892;47.488;19.026;2023-02-08T15:22:32;102515.63;;;2.17;47.90
68107;BME280;54892;47.488;19.026;2023-02-08T15:25:38;102511.87;;;2.10;48.10
68107;BME280;54892;47.488;19.026;2023-02-08T15:28:43;102512.31;;;2.15;48.11
68107;BME280;54892;47.488;19.026;2023-02-08T15:31:46;102523.66;;;1.94;48.59
68107;BME280;54892;47.488;19.026;2023-02-08T15:34:52;102522.72;;;1.95;48.50
68107;BME280;54892;47.488;19.026;2023-02-08T15:37:56;102524.19;;;1.78;49.03
68107;BME280;54892;47.488;19.026;2023-02-08T15:41:01;102520.94;;;1.86;48.93
68107;BME280;54892;47.488;19.026;2023-02-08T15:44:12;102522.13;;;1.82;48.74
68107;BME280;54892;47.488;19.026;2023-02-08T15:47:21;102522.53;;;1.87;48.95
68107;BME280;54892;47.488;19.026;2023-02-08T15:50:27;102527.22;;;1.93;48.47
68107;BME280;54892;47.488;19.026;2023-02-08T15:53:31;102528.31;;;1.81;48.96
68107;BME280;54892;47.488;19.026;2023-02-08T15:56:36;102526.91;;;1.77;48.62
68107;BME280;54892;47.488;19.026;2023-02-08T15:59:42;102527.63;;;1.79;48.62
68107;BME280;54892;47.488;19.026;2023-02-08T16:02:49;102531.16;;;1.78;48.45
68107;BME280;54892;47.488;19.026;2023-02-08T16:05:54;102525.81;;;1.70;49.02
68107;BME280;54892;47.488;19.026;2023-02-08T16:08:59;102529.38;;;1.69;49.04
68107;BME280;54892;47.488;19.026;2023-02-08T16:12:05;102532.34;;;1.54;49.45